• Join FlightAware (Why Join?)
  • Login
  • US Flag 
09:50AM EDT


 

Airport Tracker/Info


-or-


 

Live Flight TrackerFlight Track Log ✈ THY2467 ✈ 22-Apr-2013 ✈ LTAF / ADA - LTBA / IST

Flight Track Log - Related Links

Times and Time Zones

All times are in EDT time to prevent confusion due to time zone crossing. See the THY2467 flight status page for this flight to view local times or setup timezone preferences in your user account.

Time Position Orientation Groundspeed Altitude Reporting Facility
EDT Latitude Longitude Course Direction KTS MPH feet Rate Location/Type
11:34AM 37.2012 34.9579 311° West  Level Estimated
11:35AM 37.2558 34.8769 310° West  Level Estimated
11:36AM 37.3103 34.7959 310° West  Level Estimated
11:37AM 37.3648 34.7147 310° West  Level Estimated
11:38AM 37.4193 34.6335 310° West  Level Estimated
11:39AM 37.4737 34.5521 310° West  Level Estimated
11:40AM 37.5280 34.4706 310° West  Level Estimated
11:41AM 37.5823 34.3890 310° West  Level Estimated
11:42AM 37.6365 34.3072 310° West  Level Estimated
11:43AM 37.6907 34.2253 310° West  Level Estimated
11:44AM 37.7448 34.1433 310° West  Level Estimated
11:45AM 37.7988 34.0612 310° West  Level Estimated
11:46AM 37.8528 33.9790 310° West  Level Estimated
11:47AM 37.9068 33.8966 310° West  Level Estimated
11:48AM 37.9607 33.8142 310° West  Level Estimated
11:49AM 38.0145 33.7316 310° West  Level Estimated
11:50AM 38.0682 33.6489 310° West  Level Estimated
11:51AM 38.1219 33.5661 310° West  Level Estimated
11:52AM 38.1756 33.4831 309° West  Level Estimated
11:53AM 38.2292 33.4000 309° West  Level Estimated
11:54AM 38.2827 33.3168 309° West  Level Estimated
11:55AM 38.3362 33.2335 309° West  Level Estimated
11:56AM 38.3896 33.1500 309° West  Level Estimated
11:57AM 38.4430 33.0665 309° West  Level Estimated
11:58AM 38.4963 32.9828 309° West  Level Estimated
11:59AM 38.5495 32.8990 309° West  Level Estimated
12:00PM 38.6027 32.8150 309° West  Level Estimated
12:01PM 38.6558 32.7309 309° West  Level Estimated
12:02PM 38.7089 32.6468 309° West  Level Estimated
12:03PM 38.7618 32.5625 309° West  Level Estimated
12:04PM 38.8148 32.4780 309° West  Level Estimated
12:05PM 38.8676 32.3934 309° West  Level Estimated
12:06PM 38.9204 32.3088 309° West  Level Estimated
12:07PM 38.9732 32.2239 309° West  Level Estimated
12:08PM 39.0259 32.1390 309° West  Level Estimated
12:09PM 39.0785 32.0539 309° West  Level Estimated
12:10PM 39.1311 31.9687 309° West  Level Estimated
12:11PM 39.1836 31.8834 308° West  Level Estimated
12:12PM 39.2360 31.7980 308° West  Level Estimated
12:13PM 39.2884 31.7124 308° West  Level Estimated
12:14PM 39.3407 31.6267 308° West  Level Estimated
12:15PM 39.3930 31.5408 308° West  Level Estimated
12:16PM 39.4452 31.4549 308° West  Level Estimated
12:17PM 39.4973 31.3688 308° West  Level Estimated
12:18PM 39.5494 31.2826 308° West  Level Estimated
12:19PM 39.6014 31.1962 308° West  Level Estimated
12:20PM 39.6533 31.1097 308° West  Level Estimated
12:21PM 39.7052 31.0231 308° West  Level Estimated
12:22PM 39.7570 30.9364 308° West  Level Estimated
12:23PM 39.8087 30.8495 308° West  Level Estimated
12:24PM 39.8604 30.7625 308° West  Level Estimated
12:25PM 39.9120 30.6754 308° West  Level Estimated
12:26PM 39.9636 30.5881 308° West  Level Estimated
12:27PM 40.0150 30.5007 308° West  Level Estimated
12:28PM 40.0664 30.4132 308° West  Level Estimated
12:29PM 40.1178 30.3255 307° West  Level Estimated
12:30PM 40.1691 30.2377 307° West  Level Estimated
12:31PM 40.2203 30.1498 307° West  Level Estimated
12:32PM 40.2715 30.0617 307° West  Level Estimated
12:33PM 40.3225 29.9735 307° West  Level Estimated
12:34PM 40.3736 29.8852 307° West  Level Estimated
12:35PM 40.4245 29.7967 307° West  Level Estimated
12:36PM 40.4754 29.7082 307° West  Level Estimated
12:37PM 40.5262 29.6194 307° West  Level Estimated
12:38PM 40.5769 29.5306 307° West  Level Estimated
12:39PM 40.6276 29.4416 307° West  Level Estimated
12:40PM 40.6782 29.3524 307° West  Level Estimated
12:41PM 40.7288 29.2632 307° West  Level Estimated
12:42PM 40.7792 29.1737 307° West  Level Estimated
12:43PM 40.8296 29.0842 307° West  Level Estimated
12:44PM 40.8800 28.9945 307° West  Level Estimated
12:45PM 40.9302 28.9047 307° West  Level Estimated
12:46PM 40.9769 28.8211 306° West  Level Estimated
12:47PM 40.9769 28.8211 21° North  Level Estimated
12:48PM 40.9769 28.8211 21° North  Level Estimated
12:49PM 40.9769 28.8211 21° North  Level Estimated
12:50PM 40.9769 28.8211 21° North  Level Estimated
12:51PM 40.9769 28.8211 21° North  Level Estimated
12:52PM 40.9769 28.8211 21° North  Level Estimated
12:53PM 40.9769 28.8211 21° North  Level Estimated
12:54PM 40.9769 28.8211 21° North  Level Estimated
12:55PM 40.9769 28.8211 21° North  Level Estimated
12:56PM 40.9769 28.8211 21° North  Level Estimated
12:57PM 40.9769 28.8211 21° North  Level Estimated
12:58PM 40.9769 28.8211 21° North  Level Estimated
12:59PM 40.9769 28.8211 21° North  Level Estimated
01:00PM 40.9769 28.8211 21° North  Level Estimated
01:01PM 40.9769 28.8211 21° North  Level Estimated
01:02PM 40.9769 28.8211 21° North  Level Estimated